createdAt,value
2023-01-22T00:02:02.571Z,100.00
2023-01-22T00:04:29.146Z,100.00
2023-01-22T00:06:55.734Z,100.00
2023-01-22T00:09:24.897Z,100.00
2023-01-22T00:11:52.056Z,100.00
2023-01-22T00:14:18.798Z,100.00
2023-01-22T00:16:45.405Z,100.00
2023-01-22T00:19:11.964Z,100.00
2023-01-22T00:21:38.526Z,100.00
2023-01-22T00:24:05.380Z,100.00
2023-01-22T00:26:31.957Z,100.00
2023-01-22T00:28:58.510Z,100.00
2023-01-22T00:31:25.434Z,100.00
2023-01-22T00:33:51.985Z,100.00
2023-01-22T00:36:20.823Z,100.00
2023-01-22T00:38:48.421Z,100.00
2023-01-22T00:41:16.285Z,100.00
2023-01-22T00:43:43.029Z,100.00
2023-01-22T00:46:12.713Z,100.00
2023-01-22T00:48:39.647Z,100.00
2023-01-22T00:51:10.558Z,100.00
2023-01-22T00:53:37.836Z,100.00
2023-01-22T00:56:04.777Z,100.00
2023-01-22T00:58:31.417Z,100.00
2023-01-22T01:00:58.289Z,100.00
2023-01-22T01:03:28.277Z,100.00
2023-01-22T01:06:18.340Z,100.00
2023-01-22T01:08:46.310Z,100.00
2023-01-22T01:11:21.891Z,100.00
2023-01-22T01:13:49.308Z,100.00
2023-01-22T01:16:21.661Z,100.00
2023-01-22T01:18:48.328Z,100.00
2023-01-22T01:21:17.082Z,100.00
2023-01-22T01:23:43.761Z,100.00
2023-01-22T01:26:13.190Z,100.00
2023-01-22T01:28:41.492Z,100.00
2023-01-22T01:31:10.569Z,100.00
2023-01-22T01:33:37.250Z,100.00
2023-01-22T01:36:13.398Z,100.00
2023-01-22T01:38:40.479Z,100.00
2023-01-22T01:41:07.573Z,100.00
2023-01-22T01:43:34.535Z,100.00
2023-01-22T01:46:04.144Z,100.00
2023-01-22T01:48:36.092Z,100.00
2023-01-22T01:51:14.452Z,100.00
2023-01-22T01:53:44.559Z,100.00
2023-01-22T01:56:18.821Z,100.00
2023-01-22T01:58:47.017Z,100.00
2023-01-22T02:01:18.024Z,100.00
2023-01-22T02:03:46.768Z,100.00
2023-01-22T02:06:16.563Z,100.00
2023-01-22T02:08:48.267Z,100.00
2023-01-22T02:11:16.983Z,100.00
2023-01-22T02:13:55.090Z,100.00
2023-01-22T02:16:21.696Z,100.00
2023-01-22T02:18:49.582Z,100.00
2023-01-22T02:21:33.577Z,100.00
2023-01-22T02:24:00.136Z,100.00
2023-01-22T02:26:27.874Z,100.00
2023-01-22T02:28:54.506Z,100.00
2023-01-22T02:31:24.541Z,100.00
2023-01-22T02:33:51.458Z,100.00
2023-01-22T02:36:18.031Z,100.00
2023-01-22T02:38:44.619Z,100.00
2023-01-22T02:41:11.623Z,100.00
2023-01-22T02:43:38.483Z,100.00
2023-01-22T02:46:05.718Z,100.00
2023-01-22T02:48:32.373Z,100.00
2023-01-22T02:50:58.938Z,100.00
2023-01-22T02:53:25.504Z,100.00
2023-01-22T02:55:52.064Z,100.00
2023-01-22T02:58:18.564Z,100.00
2023-01-22T03:00:45.273Z,100.00
2023-01-22T03:03:15.469Z,100.00
2023-01-22T03:05:51.155Z,100.00
2023-01-22T03:08:19.580Z,100.00
2023-01-22T03:10:46.581Z,100.00
2023-01-22T03:13:33.004Z,100.00
2023-01-22T03:16:18.261Z,100.00
2023-01-22T03:19:03.226Z,100.00
2023-01-22T03:21:29.795Z,100.00
2023-01-22T03:23:56.404Z,100.00
2023-01-22T03:26:25.136Z,100.00
2023-01-22T03:28:51.911Z,100.00
2023-01-22T03:31:19.202Z,100.00
2023-01-22T03:33:46.047Z,100.00
2023-01-22T03:36:15.162Z,100.00
2023-01-22T03:38:47.697Z,100.00
2023-01-22T03:41:19.126Z,100.00
2023-01-22T03:43:47.859Z,100.00
2023-01-22T03:46:19.792Z,100.00
2023-01-22T03:48:51.987Z,100.00
2023-01-22T03:51:19.254Z,100.00
2023-01-22T03:53:46.711Z,100.00
2023-01-22T03:56:19.325Z,100.00
2023-01-22T03:58:46.848Z,100.00
2023-01-22T04:01:19.078Z,100.00
2023-01-22T04:03:45.794Z,100.00
2023-01-22T04:06:13.290Z,100.00
2023-01-22T04:08:42.400Z,100.00
2023-01-22T04:11:10.688Z,100.00
2023-01-22T04:13:39.097Z,100.00
2023-01-22T04:16:07.284Z,100.00
2023-01-22T04:19:05.775Z,100.00
2023-01-22T04:21:38.190Z,100.00
2023-01-22T04:24:07.680Z,100.00
2023-01-22T04:26:34.585Z,100.00
2023-01-22T04:29:02.640Z,100.00
2023-01-22T04:31:29.506Z,100.00
2023-01-22T04:34:19.878Z,100.00
2023-01-22T04:36:53.989Z,100.00
2023-01-22T04:39:21.414Z,100.00
2023-01-22T04:41:48.017Z,100.00
2023-01-22T04:44:14.576Z,100.00
2023-01-22T04:46:41.928Z,100.00
2023-01-22T04:49:08.452Z,100.00
2023-01-22T04:51:35.461Z,100.00
2023-01-22T04:54:01.984Z,100.00
2023-01-22T04:56:28.557Z,100.00
2023-01-22T04:58:55.064Z,100.00
2023-01-22T05:01:21.979Z,100.00
2023-01-22T05:03:49.719Z,100.00
2023-01-22T05:06:16.263Z,100.00
2023-01-22T05:08:42.943Z,100.00
2023-01-22T05:11:10.507Z,100.00
2023-01-22T05:13:43.588Z,100.00
2023-01-22T05:16:10.207Z,100.00
2023-01-22T05:18:37.514Z,100.00
2023-01-22T05:21:04.292Z,100.00
2023-01-22T05:23:32.111Z,100.00
2023-01-22T05:25:58.730Z,100.00
2023-01-22T05:28:37.941Z,100.00
2023-01-22T05:31:11.008Z,100.00
2023-01-22T05:33:42.761Z,100.00
2023-01-22T05:36:12.746Z,100.00
2023-01-22T05:38:39.578Z,100.00
2023-01-22T05:41:06.301Z,100.00
2023-01-22T05:43:38.329Z,100.00
2023-01-22T05:46:06.394Z,100.00
2023-01-22T05:48:51.771Z,100.00
2023-01-22T05:51:23.706Z,100.00
2023-01-22T05:53:50.690Z,100.00
2023-01-22T05:56:18.333Z,100.00
2023-01-22T05:58:45.080Z,100.00
2023-01-22T06:01:12.257Z,100.00
2023-01-22T06:03:41.897Z,100.00
2023-01-22T06:06:11.962Z,100.00
2023-01-22T06:08:38.872Z,100.00
2023-01-22T06:11:08.828Z,100.00
2023-01-22T06:13:35.500Z,100.00
2023-01-22T06:16:10.723Z,100.00
2023-01-22T06:18:55.826Z,100.00
2023-01-22T06:21:25.353Z,100.00
2023-01-22T06:23:52.787Z,100.00
2023-01-22T06:26:19.643Z,100.00
2023-01-22T06:28:46.594Z,100.00
2023-01-22T06:31:13.476Z,100.00
2023-01-22T06:33:41.434Z,100.00
2023-01-22T06:36:08.931Z,100.00
2023-01-22T06:38:36.813Z,100.00
2023-01-22T06:41:05.299Z,100.00
2023-01-22T06:43:32.743Z,100.00
2023-01-22T06:45:59.276Z,100.00
2023-01-22T06:48:49.892Z,100.00
2023-01-22T06:51:16.753Z,100.00
2023-01-22T06:53:43.752Z,100.00
2023-01-22T06:56:10.269Z,100.00
2023-01-22T06:58:36.865Z,100.00
2023-01-22T07:01:05.506Z,100.00
2023-01-22T07:03:32.045Z,100.00
2023-01-22T07:06:00.837Z,100.00
2023-01-22T07:08:28.669Z,100.00
2023-01-22T07:10:55.177Z,100.00
2023-01-22T07:13:21.926Z,100.00
2023-01-22T07:15:48.516Z,100.00
2023-01-22T07:18:16.677Z,100.00
2023-01-22T07:20:43.298Z,100.00
2023-01-22T07:23:10.321Z,100.00
2023-01-22T07:25:36.915Z,100.00
2023-01-22T07:28:05.617Z,100.00
2023-01-22T07:30:32.214Z,100.00
2023-01-22T07:33:02.467Z,100.00
2023-01-22T07:35:29.587Z,100.00
2023-01-22T07:37:57.998Z,100.00
2023-01-22T07:40:25.845Z,100.00
2023-01-22T07:42:53.136Z,100.00
2023-01-22T07:45:25.702Z,100.00
2023-01-22T07:47:57.493Z,100.00
2023-01-22T07:50:26.279Z,100.00
2023-01-22T07:52:53.166Z,100.00
2023-01-22T07:55:19.711Z,100.00
2023-01-22T07:57:46.348Z,100.00
2023-01-22T08:00:15.633Z,100.00
2023-01-22T08:02:42.842Z,100.00
2023-01-22T08:05:13.515Z,100.00
2023-01-22T08:07:40.180Z,100.00
2023-01-22T08:10:07.476Z,100.00
2023-01-22T08:12:34.048Z,100.00
2023-01-22T08:15:00.496Z,100.00
2023-01-22T08:17:26.933Z,100.00
2023-01-22T08:19:53.493Z,100.00
2023-01-22T08:22:20.050Z,100.00
2023-01-22T08:24:46.633Z,100.00
2023-01-22T08:27:13.861Z,100.00
2023-01-22T08:29:40.490Z,100.00
2023-01-22T08:32:07.418Z,100.00
2023-01-22T08:34:34.250Z,100.00
2023-01-22T08:37:00.791Z,100.00
2023-01-22T08:39:27.366Z,100.00
2023-01-22T08:41:57.560Z,100.00
2023-01-22T08:44:25.063Z,100.00
2023-01-22T08:46:52.161Z,100.00
2023-01-22T08:49:18.753Z,100.00
2023-01-22T08:51:45.382Z,100.00
2023-01-22T08:54:11.919Z,100.00
2023-01-22T08:56:40.766Z,100.00
2023-01-22T08:59:07.651Z,100.00
2023-01-22T09:01:34.721Z,100.00
2023-01-22T09:04:07.673Z,100.00
2023-01-22T09:06:41.481Z,100.00
2023-01-22T09:09:08.165Z,100.00
2023-01-22T09:11:35.367Z,100.00
2023-01-22T09:14:02.745Z,100.00
2023-01-22T09:16:31.908Z,100.00
2023-01-22T09:18:59.859Z,100.00
2023-01-22T09:21:26.546Z,100.00
2023-01-22T09:23:53.848Z,100.00
2023-01-22T09:26:21.171Z,100.00
2023-01-22T09:28:47.735Z,100.00
2023-01-22T09:31:14.667Z,100.00
2023-01-22T09:33:41.309Z,100.00
2023-01-22T09:36:18.829Z,100.00
2023-01-22T09:38:45.960Z,100.00
2023-01-22T09:41:35.739Z,100.00
2023-01-22T09:44:22.887Z,100.00
2023-01-22T09:47:00.150Z,100.00
2023-01-22T09:49:34.935Z,100.00
2023-01-22T09:52:05.327Z,100.00
2023-01-22T09:54:32.938Z,100.00
2023-01-22T09:57:03.138Z,100.00
2023-01-22T09:59:39.784Z,100.00
2023-01-22T10:02:32.025Z,100.00
2023-01-22T10:05:15.008Z,100.00
2023-01-22T10:07:45.370Z,100.00
2023-01-22T10:10:22.915Z,100.00
2023-01-22T10:13:20.539Z,100.00
2023-01-22T10:15:49.282Z,100.00
2023-01-22T10:18:41.788Z,100.00
2023-01-22T10:21:23.771Z,100.00
2023-01-22T10:23:51.525Z,100.00
2023-01-22T10:26:25.087Z,100.00
2023-01-22T10:28:57.566Z,100.00
2023-01-22T10:31:30.539Z,100.00
2023-01-22T10:34:18.688Z,100.00
2023-01-22T10:36:53.272Z,100.00
2023-01-22T10:39:23.512Z,100.00
2023-01-22T10:41:50.574Z,100.00
2023-01-22T10:44:24.464Z,100.00
2023-01-22T10:46:52.837Z,99.57
2023-01-22T10:49:20.571Z,99.77
2023-01-22T10:51:55.877Z,99.14
2023-01-22T10:54:29.697Z,98.80
2023-01-22T10:57:27.501Z,98.90
2023-01-22T11:00:04.536Z,99.31
2023-01-22T11:02:34.855Z,97.76
2023-01-22T11:05:18.925Z,98.42
2023-01-22T11:07:49.983Z,99.59
2023-01-22T11:10:43.400Z,98.80
2023-01-22T11:13:20.800Z,98.88
2023-01-22T11:15:56.034Z,98.27
2023-01-22T11:18:31.431Z,98.10
2023-01-22T11:21:00.745Z,98.95
2023-01-22T11:23:43.787Z,98.25
2023-01-22T11:26:32.409Z,98.55
2023-01-22T11:29:13.580Z,98.88
2023-01-22T11:32:02.184Z,96.53
2023-01-22T11:34:57.352Z,97.40
2023-01-22T11:37:37.932Z,96.83
2023-01-22T11:40:13.321Z,97.28
2023-01-22T11:43:11.710Z,97.72
2023-01-22T11:45:54.505Z,96.47
2023-01-22T11:48:41.117Z,95.60
2023-01-22T11:51:20.017Z,95.96
2023-01-22T11:54:00.629Z,95.93
2023-01-22T11:59:58.295Z,96.03
2023-01-22T12:02:38.716Z,95.42
2023-01-22T12:05:23.467Z,94.72
2023-01-22T12:08:05.062Z,94.44
2023-01-22T12:10:59.446Z,94.73
2023-01-22T12:13:59.979Z,95.13
2023-01-22T12:16:41.162Z,93.86
2023-01-22T12:19:10.366Z,94.37
2023-01-22T12:21:52.525Z,94.69
2023-01-22T12:24:38.629Z,93.94
2023-01-22T12:27:17.039Z,94.41
2023-01-22T12:29:51.589Z,94.71
2023-01-22T12:32:19.334Z,93.88
2023-01-22T12:34:53.813Z,94.26
2023-01-22T12:37:26.050Z,93.55
2023-01-22T12:40:23.817Z,93.79
2023-01-22T12:43:03.504Z,93.83
2023-01-22T12:45:35.986Z,93.35
2023-01-22T12:48:30.315Z,93.15
2023-01-22T12:50:58.366Z,93.63
2023-01-22T12:53:26.930Z,92.71
2023-01-22T12:56:01.409Z,92.22
2023-01-22T12:58:30.757Z,93.05
2023-01-22T13:01:10.257Z,93.10
2023-01-22T13:03:39.623Z,92.47
2023-01-22T13:06:29.863Z,92.40
2023-01-22T13:08:56.396Z,92.36
2023-01-22T13:11:36.870Z,91.13
2023-01-22T13:14:28.827Z,92.18
2023-01-22T13:16:59.838Z,90.61
2023-01-22T13:19:32.329Z,91.74
2023-01-22T13:22:00.560Z,92.36
2023-01-22T13:24:27.125Z,92.07
2023-01-22T13:26:59.985Z,92.63
2023-01-22T13:29:33.237Z,92.91
2023-01-22T13:32:02.421Z,93.51
2023-01-22T13:34:29.328Z,92.41
2023-01-22T13:36:56.306Z,92.35
2023-01-22T13:39:31.669Z,92.93
2023-01-22T13:42:04.946Z,92.95
2023-01-22T13:44:37.549Z,93.04
2023-01-22T13:47:05.302Z,93.12
2023-01-22T13:49:34.359Z,92.68
2023-01-22T13:52:07.588Z,92.85
2023-01-22T13:54:45.281Z,93.13
2023-01-22T13:57:13.552Z,93.50
2023-01-22T13:59:40.063Z,93.09
2023-01-22T14:02:23.370Z,93.00
2023-01-22T14:04:50.938Z,93.35
2023-01-22T14:07:32.651Z,93.40
2023-01-22T14:10:16.472Z,92.72
2023-01-22T14:12:43.263Z,92.81
2023-01-22T14:15:18.912Z,92.96
2023-01-22T14:17:46.828Z,93.12
2023-01-22T14:20:14.072Z,93.50
2023-01-22T14:22:40.561Z,93.90
2023-01-22T14:25:08.596Z,93.57
2023-01-22T14:27:48.628Z,93.24
2023-01-22T14:30:19.107Z,93.76
2023-01-22T14:32:46.088Z,93.79
2023-01-22T14:35:18.166Z,93.33
2023-01-22T14:37:45.801Z,93.29
2023-01-22T14:40:15.117Z,93.35
2023-01-22T14:42:41.984Z,93.61
2023-01-22T14:45:10.501Z,93.30
2023-01-22T14:47:37.237Z,93.98
2023-01-22T14:50:04.645Z,93.90
2023-01-22T14:52:31.186Z,93.52
2023-01-22T14:54:57.964Z,93.89
2023-01-22T14:57:25.210Z,93.67
2023-01-22T14:59:51.730Z,94.01
2023-01-22T15:02:18.703Z,93.20
2023-01-22T15:04:45.640Z,92.88
2023-01-22T15:07:12.392Z,92.99
2023-01-22T15:09:39.852Z,93.29
2023-01-22T15:12:07.337Z,93.91
2023-01-22T15:14:34.506Z,93.30
2023-01-22T15:17:01.122Z,93.35
2023-01-22T15:19:29.463Z,93.38
2023-01-22T15:21:58.771Z,93.34
2023-01-22T15:24:26.794Z,93.26
2023-01-22T15:26:53.532Z,92.63
2023-01-22T15:29:20.078Z,92.46
2023-01-22T15:31:46.685Z,93.02
2023-01-22T15:34:13.254Z,92.55
2023-01-22T15:36:39.869Z,92.41
2023-01-22T15:39:07.217Z,92.71
2023-01-22T15:41:36.286Z,93.24
2023-01-22T15:44:05.496Z,93.17
2023-01-22T15:46:35.043Z,93.04
2023-01-22T15:49:02.527Z,93.12
2023-01-22T15:51:29.917Z,93.15
2023-01-22T15:53:58.886Z,93.87
2023-01-22T15:56:28.087Z,93.11
2023-01-22T15:58:54.858Z,93.91
2023-01-22T16:01:22.443Z,93.46
2023-01-22T16:03:49.336Z,92.90
2023-01-22T16:06:17.308Z,93.55
2023-01-22T16:08:46.072Z,93.10
2023-01-22T16:11:13.867Z,92.80
2023-01-22T16:13:41.049Z,93.08
2023-01-22T16:16:18.155Z,92.88
2023-01-22T16:18:46.180Z,92.32
2023-01-22T16:21:13.576Z,92.39
2023-01-22T16:23:45.973Z,92.18
2023-01-22T16:26:18.148Z,92.00
2023-01-22T16:28:46.230Z,91.74
2023-01-22T16:31:16.198Z,91.89
2023-01-22T16:33:46.050Z,92.41
2023-01-22T16:36:18.897Z,91.79
2023-01-22T16:38:45.757Z,91.85
2023-01-22T16:41:24.525Z,91.62
2023-01-22T16:43:55.934Z,92.20
2023-01-22T16:46:25.851Z,92.17
2023-01-22T16:48:56.044Z,92.18
2023-01-22T16:51:25.047Z,91.92
2023-01-22T16:53:52.393Z,92.43
2023-01-22T16:56:19.064Z,92.40
2023-01-22T16:58:45.632Z,93.00
2023-01-22T17:01:14.163Z,92.63
2023-01-22T17:03:41.397Z,93.48
2023-01-22T17:06:20.692Z,93.29
2023-01-22T17:08:48.202Z,93.34
2023-01-22T17:11:17.417Z,93.56
2023-01-22T17:13:44.432Z,93.65
2023-01-22T17:16:11.869Z,93.24
2023-01-22T17:18:38.911Z,93.59
2023-01-22T17:21:07.236Z,94.03
2023-01-22T17:23:33.786Z,94.23
2023-01-22T17:26:05.459Z,93.78
2023-01-22T17:28:32.496Z,94.02
2023-01-22T17:30:59.160Z,94.14
2023-01-22T17:34:31.762Z,93.47
2023-01-22T17:36:58.298Z,94.30
2023-01-22T17:39:25.321Z,94.26
2023-01-22T17:41:52.174Z,94.15
2023-01-22T17:44:18.833Z,93.88
2023-01-22T17:46:45.343Z,93.22
2023-01-22T17:49:12.752Z,93.50
2023-01-22T17:51:41.953Z,93.53
2023-01-22T17:54:11.599Z,94.22
2023-01-22T17:56:43.190Z,93.66
2023-01-22T17:59:10.583Z,93.76
2023-01-22T18:01:38.752Z,93.62
2023-01-22T18:04:08.650Z,93.44
2023-01-22T18:06:36.302Z,93.59
2023-01-22T18:09:05.719Z,93.74
2023-01-22T18:11:33.192Z,93.41
2023-01-22T18:14:05.287Z,93.54
2023-01-22T18:16:35.371Z,93.34
2023-01-22T18:19:05.214Z,93.62
2023-01-22T18:21:32.074Z,93.61
2023-01-22T18:24:00.697Z,93.80
2023-01-22T18:26:27.607Z,94.05
2023-01-22T18:28:56.716Z,93.96
2023-01-22T18:31:27.889Z,93.13
2023-01-22T18:33:57.209Z,93.60
2023-01-22T18:36:26.432Z,93.57
2023-01-22T18:38:52.991Z,93.63
2023-01-22T18:41:26.886Z,93.09
2023-01-22T18:44:00.174Z,93.26
2023-01-22T18:46:29.622Z,94.21
2023-01-22T18:49:01.315Z,93.79
2023-01-22T18:51:28.425Z,93.78
2023-01-22T18:53:56.461Z,94.00
2023-01-22T18:56:25.547Z,94.00
2023-01-22T18:58:56.322Z,93.91
2023-01-22T19:01:32.147Z,94.46
2023-01-22T19:04:02.324Z,93.68
2023-01-22T19:06:36.810Z,94.16
2023-01-22T19:09:12.162Z,94.39
2023-01-22T19:11:41.074Z,93.88
2023-01-22T19:14:09.241Z,93.89
2023-01-22T19:16:38.447Z,93.96
2023-01-22T19:19:11.098Z,94.22
2023-01-22T19:21:40.254Z,94.00
2023-01-22T19:24:08.707Z,93.91
2023-01-22T19:26:37.186Z,93.83
2023-01-22T19:29:07.058Z,94.73
2023-01-22T19:31:42.497Z,94.06
2023-01-22T19:34:12.086Z,94.70
2023-01-22T19:36:39.334Z,94.43
2023-01-22T19:39:11.415Z,94.59
2023-01-22T19:41:39.686Z,94.55
2023-01-22T19:44:07.040Z,94.53
2023-01-22T19:46:34.776Z,93.51
2023-01-22T19:49:01.693Z,94.03
2023-01-22T19:51:30.687Z,93.50
2023-01-22T19:54:00.611Z,93.90
2023-01-22T19:56:32.934Z,93.88
2023-01-22T19:59:02.574Z,94.06
2023-01-22T20:01:29.467Z,93.69
2023-01-22T20:03:56.394Z,93.45
2023-01-22T20:06:23.953Z,93.82
2023-01-22T20:08:51.041Z,93.88
2023-01-22T20:11:18.617Z,94.29
2023-01-22T20:13:45.576Z,93.86
2023-01-22T20:16:27.621Z,93.47
2023-01-22T20:18:56.294Z,93.57
2023-01-22T20:21:24.514Z,93.49
2023-01-22T20:23:51.155Z,93.76
2023-01-22T20:26:20.111Z,93.05
2023-01-22T20:28:47.448Z,93.76
2023-01-22T20:31:17.461Z,93.26
2023-01-22T20:33:44.135Z,93.70
2023-01-22T20:36:15.026Z,93.58
2023-01-22T20:38:43.153Z,93.26
2023-01-22T20:41:09.777Z,93.21
2023-01-22T20:43:39.237Z,92.96
2023-01-22T20:46:15.047Z,92.92
2023-01-22T20:48:41.938Z,92.92
2023-01-22T20:51:16.180Z,92.58
2023-01-22T20:53:43.841Z,93.17
2023-01-22T20:56:13.532Z,93.00
2023-01-22T20:58:40.438Z,93.55
2023-01-22T21:01:10.504Z,93.43
2023-01-22T21:03:37.283Z,94.06
2023-01-22T21:06:06.476Z,94.07
2023-01-22T21:08:33.978Z,94.19
2023-01-22T21:11:09.624Z,94.16
2023-01-22T21:13:36.656Z,93.95
2023-01-22T21:16:08.068Z,94.51
2023-01-22T21:18:34.671Z,93.88
2023-01-22T21:21:04.584Z,94.21
2023-01-22T21:23:31.351Z,93.88
2023-01-22T21:26:04.254Z,94.67
2023-01-22T21:28:30.989Z,94.60
2023-01-22T21:31:11.461Z,95.09
2023-01-22T21:33:39.120Z,94.55
2023-01-22T21:36:08.000Z,95.00
2023-01-22T21:38:35.726Z,94.78
2023-01-22T21:41:07.809Z,95.07
2023-01-22T21:43:53.605Z,95.26
2023-01-22T21:46:25.420Z,94.66
2023-01-22T21:48:54.294Z,95.21
2023-01-22T21:51:21.260Z,95.09
2023-01-22T21:53:48.145Z,95.46
2023-01-22T21:56:17.435Z,95.65
2023-01-22T21:58:45.356Z,95.83
2023-01-22T22:01:15.442Z,95.95
2023-01-22T22:03:42.272Z,95.75
2023-01-22T22:06:13.368Z,95.67
2023-01-22T22:08:43.334Z,96.15
2023-01-22T22:11:12.380Z,95.97
2023-01-22T22:13:39.306Z,96.11
2023-01-22T22:16:07.942Z,96.41
2023-01-22T22:18:35.530Z,95.89
2023-01-22T22:21:05.071Z,96.07
2023-01-22T22:23:32.448Z,95.42
2023-01-22T22:26:00.677Z,95.79
2023-01-22T22:28:28.069Z,95.68
2023-01-22T22:31:02.570Z,95.53
2023-01-22T22:33:29.208Z,95.32
2023-01-22T22:35:55.649Z,95.26
2023-01-22T22:38:22.338Z,95.32
2023-01-22T22:41:06.139Z,95.39
2023-01-22T22:43:37.449Z,95.04
2023-01-22T22:46:13.047Z,94.54
2023-01-22T22:48:41.204Z,94.62
2023-01-22T22:51:13.545Z,94.93
2023-01-22T22:53:41.177Z,94.84
2023-01-22T22:56:09.557Z,94.75
2023-01-22T22:58:36.966Z,95.27
2023-01-22T23:01:11.146Z,95.18
2023-01-22T23:03:38.487Z,94.73
2023-01-22T23:06:08.613Z,95.04
2023-01-22T23:08:36.356Z,95.21
2023-01-22T23:11:07.732Z,95.91
2023-01-22T23:13:35.551Z,95.62
2023-01-22T23:16:08.255Z,95.79
2023-01-22T23:18:35.895Z,96.07
2023-01-22T23:21:07.654Z,96.11
2023-01-22T23:23:36.506Z,96.72
2023-01-22T23:26:07.054Z,96.60
2023-01-22T23:28:33.559Z,96.27
2023-01-22T23:31:08.231Z,96.59
2023-01-22T23:33:36.048Z,96.65
2023-01-22T23:36:08.883Z,96.31
2023-01-22T23:38:35.801Z,96.76
2023-01-22T23:41:04.890Z,96.04
2023-01-22T23:43:32.763Z,96.26
2023-01-22T23:46:00.107Z,95.96
2023-01-22T23:48:28.171Z,95.99
2023-01-22T23:50:55.214Z,95.47
2023-01-22T23:53:22.595Z,95.20
2023-01-22T23:55:49.548Z,95.21
2023-01-22T23:58:16.307Z,94.84
